Time;durP1;ratioP1;P1;durP2;ratioP2;P2;SDS_P1;SDS_P2;PMS_P1;PMS_P2;Temp;Humidity;BMP_temperature;BMP_pressure;BME280_temperature;BME280_humidity;BME280_pressure;Samples;Min_cycle;Max_cycle;Signal;HPM_P1;HPM_P2
2020/12/30 00:02:21;;;;;;;;;;;;;;;7.19;53.59;99450.88;6058888;23;96953;-87
2020/12/30 00:04:57;;;;;;;;;;;;;;;6.91;54.16;99447.66;6034350;23;97612;-84
2020/12/30 00:07:26;;;;;;;;;;;;;;;7.14;53.85;99448.44;6057034;23;96311;-88
2020/12/30 00:09:57;;;;;;;;;;;;;;;7.25;53.11;99449.75;6051956;23;96448;-88
2020/12/30 00:12:28;;;;;;;;;;;;;;;7.24;53.45;99455.91;6050964;23;99478;-89
2020/12/30 00:15:00;;;;;;;;;;;;;;;7.27;52.98;99459.28;6049399;23;99268;-89
2020/12/30 00:17:26;;;;;;;;;;;;;;;7.04;53.57;99462.00;6051302;23;96524;-89
2020/12/30 00:19:52;;;;;;;;;;;;;;;6.93;54.45;99462.47;6050187;23;96690;-88
2020/12/30 00:22:18;;;;;;;;;;;;;;;7.08;53.63;99463.59;6052880;23;98354;-89
2020/12/30 00:24:50;;;;;;;;;;;;;;;6.84;54.31;99467.22;6055323;23;99374;-88
2020/12/30 00:27:23;;;;;;;;;;;;;;;6.98;54.04;99468.38;6055405;23;96839;-89
2020/12/30 00:29:48;;;;;;;;;;;;;;;6.62;55.16;99467.25;6050591;23;96558;-89
2020/12/30 00:32:25;;;;;;;;;;;;;;;6.84;54.45;99470.69;6050280;23;97049;-88
2020/12/30 00:34:55;;;;;;;;;;;;;;;6.72;55.15;99464.19;6049696;23;98242;-89
2020/12/30 00:37:21;;;;;;;;;;;;;;;6.93;54.44;99472.09;6021515;23;96604;-88
2020/12/30 00:39:47;;;;;;;;;;;;;;;6.70;54.59;99467.75;6049328;23;96684;-90
2020/12/30 00:42:25;;;;;;;;;;;;;;;6.69;54.78;99468.72;6051111;23;101184;-89
2020/12/30 00:52:58;;;;;;;;;;;;;;;6.82;54.44;99479.56;6058635;23;96929;-89
2020/12/30 00:56:16;;;;;;;;;;;;;;;6.57;55.10;99472.66;6058198;23;96479;-85
2020/12/30 00:58:45;;;;;;;;;;;;;;;6.50;55.50;99479.06;6060970;23;96017;-85
2020/12/30 01:01:11;;;;;;;;;;;;;;;6.58;55.70;99474.38;6059412;23;96462;-89
2020/12/30 01:06:20;;;;;;;;;;;;;;;6.54;55.44;99477.19;6055852;23;98664;-90
2020/12/30 01:08:46;;;;;;;;;;;;;;;6.64;55.17;99486.38;6059087;23;95847;-86
2020/12/30 01:11:12;;;;;;;;;;;;;;;6.52;55.33;99486.88;6056473;23;96571;-89
2020/12/30 01:13:41;;;;;;;;;;;;;;;6.51;55.76;99485.16;6056316;23;96967;-89
2020/12/30 01:16:15;;;;;;;;;;;;;;;6.48;55.63;99490.53;6056512;23;99503;-89
2020/12/30 01:18:42;;;;;;;;;;;;;;;6.35;55.98;99498.03;6058462;23;96278;-89
2020/12/30 01:21:09;;;;;;;;;;;;;;;6.36;55.98;99505.84;6057717;23;96017;-90
2020/12/30 01:23:45;;;;;;;;;;;;;;;6.55;55.29;99498.13;6057909;23;97164;-90
2020/12/30 01:26:12;;;;;;;;;;;;;;;6.31;56.05;99493.78;6053879;23;98987;-87
2020/12/30 01:29:05;;;;;;;;;;;;;;;6.15;56.41;99495.28;6059840;23;95952;-87
2020/12/30 01:31:32;;;;;;;;;;;;;;;6.55;55.22;99492.88;6058060;23;96116;-83
2020/12/30 01:33:59;;;;;;;;;;;;;;;6.48;55.39;99486.16;6058880;23;98481;-88
2020/12/30 01:36:25;;;;;;;;;;;;;;;6.41;55.69;99495.16;6059844;23;96912;-86
2020/12/30 01:41:37;;;;;;;;;;;;;;;6.59;55.29;99494.44;6058484;23;95984;-81
2020/12/30 01:44:04;;;;;;;;;;;;;;;6.50;55.50;99497.41;6059648;23;99644;-86
2020/12/30 01:46:33;;;;;;;;;;;;;;;6.39;55.41;99502.22;6059330;23;100587;-84
2020/12/30 01:49:01;;;;;;;;;;;;;;;6.37;55.23;99511.91;6060608;23;95930;-79
2020/12/30 01:51:40;;;;;;;;;;;;;;;6.51;54.85;99504.38;6059460;23;96028;-80
2020/12/30 01:54:07;;;;;;;;;;;;;;;6.50;55.19;99509.72;6059708;23;96848;-80
2020/12/30 01:56:35;;;;;;;;;;;;;;;6.59;55.09;99501.47;6058911;23;98504;-81
2020/12/30 01:59:07;;;;;;;;;;;;;;;6.67;54.73;99504.66;6059291;23;95803;-88
2020/12/30 02:01:38;;;;;;;;;;;;;;;6.52;55.05;99497.38;6059967;23;95952;-86
2020/12/30 02:04:06;;;;;;;;;;;;;;;6.67;54.54;99500.25;6059269;23;98805;-80
2020/12/30 02:06:32;;;;;;;;;;;;;;;6.44;55.28;99500.28;6058714;23;99245;-82
2020/12/30 02:08:59;;;;;;;;;;;;;;;6.37;55.50;99509.28;6059975;23;95918;-80
2020/12/30 02:11:26;;;;;;;;;;;;;;;6.64;55.16;99507.38;6058267;23;96008;-88
2020/12/30 02:14:02;;;;;;;;;;;;;;;6.74;54.37;99514.00;6055924;23;97057;-89
2020/12/30 02:16:28;;;;;;;;;;;;;;;6.67;54.69;99523.03;6058663;23;97002;-89
2020/12/30 02:18:55;;;;;;;;;;;;;;;6.77;54.57;99511.25;6056820;23;96281;-89
2020/12/30 02:21:22;;;;;;;;;;;;;;;6.92;53.88;99522.91;6046737;23;96824;-88
2020/12/30 02:23:51;;;;;;;;;;;;;;;6.55;54.75;99518.25;6050245;23;100344;-88
2020/12/30 02:26:18;;;;;;;;;;;;;;;6.82;54.36;99521.59;6053419;23;101141;-87
2020/12/30 02:28:44;;;;;;;;;;;;;;;6.66;54.88;99519.56;6055098;23;96482;-88
2020/12/30 02:31:11;;;;;;;;;;;;;;;6.71;54.78;99519.34;6057293;23;96239;-89
2020/12/30 02:33:37;;;;;;;;;;;;;;;7.09;53.64;99521.31;6053125;23;99278;-89
2020/12/30 02:36:03;;;;;;;;;;;;;;;6.82;54.42;99516.34;6053257;23;99460;-89
2020/12/30 02:38:30;;;;;;;;;;;;;;;7.07;53.95;99522.31;6057499;23;96427;-90
2020/12/30 02:40:59;;;;;;;;;;;;;;;7.15;53.49;99520.22;6054658;23;96426;-89
2020/12/30 02:43:26;;;;;;;;;;;;;;;7.01;53.74;99517.31;6056057;23;100244;-90
2020/12/30 02:45:52;;;;;;;;;;;;;;;6.94;53.85;99523.72;6053370;23;96631;-89
2020/12/30 02:48:18;;;;;;;;;;;;;;;7.04;53.73;99532.91;6027857;23;96501;-89
2020/12/30 02:50:45;;;;;;;;;;;;;;;7.01;53.33;99530.44;6025384;23;96643;-88
2020/12/30 02:53:11;;;;;;;;;;;;;;;7.03;53.60;99533.84;6023414;23;100263;-88
2020/12/30 02:55:37;;;;;;;;;;;;;;;6.99;53.51;99541.00;6051953;23;98366;-88
2020/12/30 02:58:08;;;;;;;;;;;;;;;7.04;53.69;99532.91;6032275;23;96467;-87
2020/12/30 03:00:35;;;;;;;;;;;;;;;6.78;54.17;99526.94;6057560;23;96297;-89
2020/12/30 03:03:01;;;;;;;;;;;;;;;6.48;55.04;99532.53;6056927;23;98671;-87
2020/12/30 03:05:29;;;;;;;;;;;;;;;6.73;54.67;99528.03;6057403;23;98827;-87
2020/12/30 03:07:55;;;;;;;;;;;;;;;6.93;53.79;99524.63;6058089;23;96622;-88
2020/12/30 03:10:31;;;;;;;;;;;;;;;6.84;54.17;99524.97;6055120;23;96684;-87
2020/12/30 03:12:59;;;;;;;;;;;;;;;6.84;54.31;99530.22;6057177;23;97760;-87
2020/12/30 03:15:25;;;;;;;;;;;;;;;6.89;53.74;99523.06;6056498;23;97155;-86
2020/12/30 03:17:52;;;;;;;;;;;;;;;6.77;54.18;99521.75;6058037;23;95962;-88
2020/12/30 03:20:22;;;;;;;;;;;;;;;6.79;54.51;99526.03;6057000;23;96154;-86
2020/12/30 03:22:49;;;;;;;;;;;;;;;6.70;54.21;99526.38;6056389;23;99101;-87
2020/12/30 03:25:15;;;;;;;;;;;;;;;6.82;54.39;99521.59;6057653;23;98167;-87
2020/12/30 03:27:41;;;;;;;;;;;;;;;6.68;54.66;99525.59;6033588;23;95850;-87
2020/12/30 03:30:07;;;;;;;;;;;;;;;6.64;54.85;99526.63;6058711;23;97252;-85
2020/12/30 03:32:34;;;;;;;;;;;;;;;6.80;54.40;99530.38;6059124;23;97045;-79
2020/12/30 03:35:03;;;;;;;;;;;;;;;6.64;54.58;99529.25;6058532;23;97349;-82
2020/12/30 03:37:29;;;;;;;;;;;;;;;6.71;54.63;99538.59;6055329;23;96564;-87
2020/12/30 03:39:55;;;;;;;;;;;;;;;6.59;54.89;99530.34;6050588;23;96640;-87
2020/12/30 03:42:21;;;;;;;;;;;;;;;6.53;55.28;99528.81;6047367;23;99322;-87
2020/12/30 03:44:48;;;;;;;;;;;;;;;6.76;54.47;99522.69;6048816;23;98019;-88
2020/12/30 03:47:14;;;;;;;;;;;;;;;6.69;54.75;99531.72;6054747;23;96540;-88
2020/12/30 03:49:41;;;;;;;;;;;;;;;6.68;54.82;99525.59;6051985;23;96531;-88
2020/12/30 03:52:09;;;;;;;;;;;;;;;6.68;55.18;99530.84;6050871;23;98206;-87
2020/12/30 03:54:35;;;;;;;;;;;;;;;6.95;54.30;99528.06;6055437;23;98134;-86
2020/12/30 03:57:01;;;;;;;;;;;;;;;6.78;54.80;99532.19;6055470;23;97246;-89
2020/12/30 03:59:27;;;;;;;;;;;;;;;6.59;54.87;99531.19;6056273;23;96312;-87
2020/12/30 04:01:53;;;;;;;;;;;;;;;6.78;54.85;99536.59;6053805;23;97916;-87
2020/12/30 04:04:19;;;;;;;;;;;;;;;6.95;53.98;99522.81;6048904;23;100323;-87
2020/12/30 04:06:45;;;;;;;;;;;;;;;7.10;53.88;99530.03;6052529;23;96540;-88
2020/12/30 04:09:12;;;;;;;;;;;;;;;6.97;54.08;99531.47;6052595;23;96622;-88
2020/12/30 04:11:37;;;;;;;;;;;;;;;6.98;53.77;99543.69;6047045;23;101798;-87
2020/12/30 04:14:03;;;;;;;;;;;;;;;7.03;54.14;99541.72;6045961;23;99105;-87
2020/12/30 04:16:30;;;;;;;;;;;;;;;6.78;54.67;99532.19;6044082;23;96830;-88
2020/12/30 04:18:56;;;;;;;;;;;;;;;6.79;54.37;99533.91;6050037;23;96730;-88
2020/12/30 04:21:22;;;;;;;;;;;;;;;6.69;54.87;99537.81;6044523;23;101369;-87
2020/12/30 04:23:48;;;;;;;;;;;;;;;6.83;54.73;99541.69;6046267;23;100097;-88
2020/12/30 04:26:16;;;;;;;;;;;;;;;6.86;54.53;99542.41;6049796;23;96677;-87
2020/12/30 04:28:42;;;;;;;;;;;;;;;6.38;56.08;99547.75;6055359;23;96420;-89
2020/12/30 04:31:09;;;;;;;;;;;;;;;6.72;55.10;99548.19;6052648;23;97129;-87
2020/12/30 04:33:35;;;;;;;;;;;;;;;6.85;54.75;99552.94;6055017;23;99565;-85
2020/12/30 04:38:43;;;;;;;;;;;;;;;6.71;55.32;99551.72;6058135;23;96121;-81
2020/12/30 04:41:11;;;;;;;;;;;;;;;6.91;54.43;99547.47;6060447;23;97028;-86
2020/12/30 04:43:39;;;;;;;;;;;;;;;6.95;54.50;99554.31;6059013;23;97239;-87
2020/12/30 04:46:05;;;;;;;;;;;;;;;7.13;53.69;99543.06;6058727;23;96205;-89
2020/12/30 04:48:32;;;;;;;;;;;;;;;7.21;53.60;99562.00;6048652;23;96522;-87
2020/12/30 04:50:58;;;;;;;;;;;;;;;6.94;54.53;99561.34;6040941;23;98040;-88
2020/12/30 04:53:27;;;;;;;;;;;;;;;7.05;53.96;99556.50;6053343;23;98108;-92
2020/12/30 04:55:57;;;;;;;;;;;;;;;7.05;54.23;99563.53;6058733;23;95862;-81
2020/12/30 04:58:29;;;;;;;;;;;;;;;6.96;54.27;99561.25;6060021;23;95828;-83
2020/12/30 05:01:16;;;;;;;;;;;;;;;7.11;53.96;99563.28;6058871;23;99333;-89
2020/12/30 05:03:57;;;;;;;;;;;;;;;7.15;53.62;99565.72;6060052;23;96944;-79
2020/12/30 05:06:30;;;;;;;;;;;;;;;7.00;54.18;99573.38;6060067;23;96042;-78
2020/12/30 05:09:00;;;;;;;;;;;;;;;7.07;54.01;99575.69;6060328;23;96031;-79
2020/12/30 05:11:31;;;;;;;;;;;;;;;7.02;54.41;99580.25;6059131;23;96288;-79
2020/12/30 05:13:57;;;;;;;;;;;;;;;6.89;54.35;99576.44;6058601;23;98057;-84
2020/12/30 05:16:26;;;;;;;;;;;;;;;6.95;54.24;99585.84;6060085;23;95832;-84
2020/12/30 05:19:02;;;;;;;;;;;;;;;7.05;53.94;99585.41;6059880;23;95998;-78
2020/12/30 05:24:07;;;;;;;;;;;;;;;7.06;53.89;99599.41;6028144;23;99520;-80
2020/12/30 05:26:36;;;;;;;;;;;;;;;7.13;53.35;99601.72;6059880;23;95934;-82
2020/12/30 05:29:04;;;;;;;;;;;;;;;7.09;53.52;99608.00;6059811;23;97635;-85
2020/12/30 05:31:30;;;;;;;;;;;;;;;7.12;53.36;99607.03;6058861;23;100004;-86
2020/12/30 05:33:58;;;;;;;;;;;;;;;7.22;53.46;99611.84;6055762;23;97761;-86
2020/12/30 05:36:25;;;;;;;;;;;;;;;7.33;53.01;99611.44;6048343;23;96684;-87
2020/12/30 05:38:52;;;;;;;;;;;;;;;7.13;53.27;99616.63;6043185;23;96861;-86
2020/12/30 05:41:20;;;;;;;;;;;;;;;7.03;54.04;99615.25;6020014;23;98576;-87
2020/12/30 05:43:46;;;;;;;;;;;;;;;6.91;54.19;99615.72;6039740;23;99189;-87
2020/12/30 05:46:24;;;;;;;;;;;;;;;6.71;54.98;99619.97;6042727;23;96729;-87
2020/12/30 05:48:52;;;;;;;;;;;;;;;6.83;54.65;99620.44;6041740;23;96570;-87
2020/12/30 05:51:25;;;;;;;;;;;;;;;6.83;54.71;99628.31;6039789;23;98279;-86
2020/12/30 05:54:08;;;;;;;;;;;;;;;6.76;54.84;99631.16;6039302;23;98227;-86
2020/12/30 05:56:34;;;;;;;;;;;;;;;6.91;54.22;99637.59;6041459;23;96668;-87
2020/12/30 05:59:00;;;;;;;;;;;;;;;6.93;54.41;99629.69;6052710;23;96747;-88
2020/12/30 06:01:27;;;;;;;;;;;;;;;6.97;54.04;99636.50;6051129;23;98971;-87
2020/12/30 06:03:53;;;;;;;;;;;;;;;6.67;55.09;99635.91;6051845;23;99199;-87
2020/12/30 06:06:20;;;;;;;;;;;;;;;6.57;55.23;99638.00;6054778;23;96584;-88
2020/12/30 06:08:48;;;;;;;;;;;;;;;6.80;54.73;99645.91;6054062;23;96210;-88
2020/12/30 06:11:15;;;;;;;;;;;;;;;6.93;54.49;99645.44;6050139;23;96977;-87
2020/12/30 06:13:43;;;;;;;;;;;;;;;6.86;54.36;99649.19;6046522;23;96645;-88
2020/12/30 06:16:14;;;;;;;;;;;;;;;6.82;54.55;99658.13;6041411;23;96631;-89
2020/12/30 06:18:42;;;;;;;;;;;;;;;6.65;54.84;99656.97;6046827;23;97305;-90
2020/12/30 06:23:56;;;;;;;;;;;;;;;6.75;54.77;99675.88;6049471;23;96700;-89
2020/12/30 06:26:26;;;;;;;;;;;;;;;6.60;55.37;99679.91;6054678;23;96414;-89
2020/12/30 06:28:56;;;;;;;;;;;;;;;6.67;55.00;99675.28;6042805;23;96591;-89
2020/12/30 06:31:23;;;;;;;;;;;;;;;6.68;54.96;99683.13;6042946;23;100505;-89
2020/12/30 06:33:49;;;;;;;;;;;;;;;6.75;54.79;99689.84;6040071;23;98097;-89
2020/12/30 06:36:23;;;;;;;;;;;;;;;6.77;54.60;99687.16;6041692;23;96570;-88
2020/12/30 06:38:49;;;;;;;;;;;;;;;6.74;54.61;99698.63;6043697;23;96682;-91
2020/12/30 06:41:16;;;;;;;;;;;;;;;6.54;55.01;99703.75;6039191;23;98850;-90
2020/12/30 06:43:43;;;;;;;;;;;;;;;6.57;55.07;99702.75;6038932;23;98654;-90
2020/12/30 06:46:09;;;;;;;;;;;;;;;6.59;55.13;99699.19;6042651;23;96608;-87
2020/12/30 06:48:54;;;;;;;;;;;;;;;6.58;54.97;99713.22;6044625;23;96717;-88
2020/12/30 06:51:20;;;;;;;;;;;;;;;6.51;55.47;99718.72;6019385;23;97881;-89
2020/12/30 06:53:49;;;;;;;;;;;;;;;6.70;54.74;99718.03;6047785;23;98256;-87
2020/12/30 06:56:34;;;;;;;;;;;;;;;6.69;55.04;99726.84;6049231;23;96745;-87
2020/12/30 06:59:00;;;;;;;;;;;;;;;6.81;54.34;99722.91;6055053;23;96650;-87
2020/12/30 07:01:26;;;;;;;;;;;;;;;6.74;54.53;99730.16;6049793;23;98320;-85
2020/12/30 07:03:52;;;;;;;;;;;;;;;6.61;54.87;99728.88;6044577;23;101336;-87
2020/12/30 07:06:36;;;;;;;;;;;;;;;6.72;54.61;99721.47;6050293;23;96558;-87
2020/12/30 07:09:03;;;;;;;;;;;;;;;6.62;55.05;99725.34;6057789;23;96557;-87
2020/12/30 07:11:40;;;;;;;;;;;;;;;6.80;54.36;99724.66;6055003;23;98201;-88
2020/12/30 07:14:07;;;;;;;;;;;;;;;6.63;54.66;99727.03;6050641;23;97586;-87
2020/12/30 07:16:34;;;;;;;;;;;;;;;6.55;55.21;99728.22;6056603;23;96761;-87
2020/12/30 07:19:00;;;;;;;;;;;;;;;6.39;55.46;99727.91;6057416;23;96558;-82
2020/12/30 07:21:26;;;;;;;;;;;;;;;6.56;54.76;99735.19;6057414;23;98134;-85
2020/12/30 07:26:56;;;;;;;;;;;;;;;6.38;55.35;99739.28;6040127;23;96017;-85
2020/12/30 07:29:22;;;;;;;;;;;;;;;6.58;54.66;99741.22;6058818;23;96011;-84
2020/12/30 07:31:49;;;;;;;;;;;;;;;6.36;55.59;99741.13;6056160;23;97704;-87
2020/12/30 07:34:16;;;;;;;;;;;;;;;6.61;54.49;99747.25;6057920;23;97650;-87
2020/12/30 07:36:43;;;;;;;;;;;;;;;6.62;54.92;99745.47;6057734;23;96492;-88
2020/12/30 07:39:09;;;;;;;;;;;;;;;6.83;54.58;99743.88;6051724;23;96602;-88
2020/12/30 07:41:36;;;;;;;;;;;;;;;6.82;54.02;99755.28;6047079;23;96915;-86
2020/12/30 07:44:03;;;;;;;;;;;;;;;6.61;54.68;99757.75;6026654;23;100306;-84
2020/12/30 07:46:29;;;;;;;;;;;;;;;6.57;54.68;99757.88;6027253;23;96852;-83
2020/12/30 07:49:06;;;;;;;;;;;;;;;6.68;54.50;99761.88;6028841;23;97306;-83
2020/12/30 07:51:31;;;;;;;;;;;;;;;6.64;54.73;99762.88;6029425;23;100795;-82
2020/12/30 07:53:57;;;;;;;;;;;;;;;6.69;54.36;99757.47;6031017;23;101844;-81
2020/12/30 07:56:24;;;;;;;;;;;;;;;6.61;54.53;99768.25;6034526;23;96780;-82
2020/12/30 07:58:50;;;;;;;;;;;;;;;6.55;54.36;99772.84;6048967;23;96880;-81
2020/12/30 08:01:18;;;;;;;;;;;;;;;6.65;54.27;99772.47;6045547;23;98294;-82
2020/12/30 08:03:44;;;;;;;;;;;;;;;7.01;53.53;99779.97;6045240;23;99879;-82
2020/12/30 08:06:13;;;;;;;;;;;;;;;6.71;53.82;99782.75;6052850;23;96772;-84
2020/12/30 08:08:42;;;;;;;;;;;;;;;6.74;54.33;99782.66;6053635;23;96563;-82
2020/12/30 08:11:08;;;;;;;;;;;;;;;6.64;54.47;99788.25;6053359;23;97942;-84
2020/12/30 08:13:35;;;;;;;;;;;;;;;6.46;54.96;99788.91;6053846;23;97713;-84
2020/12/30 08:16:00;;;;;;;;;;;;;;;6.47;55.13;99790.63;6055406;23;97133;-86
2020/12/30 08:18:27;;;;;;;;;;;;;;;6.71;54.43;99801.13;6052051;23;96923;-86
2020/12/30 08:20:53;;;;;;;;;;;;;;;6.98;53.54;99803.69;6039941;23;99117;-84
2020/12/30 08:23:19;;;;;;;;;;;;;;;6.96;53.38;99803.75;6030233;23;99252;-83
2020/12/30 08:25:47;;;;;;;;;;;;;;;7.22;52.63;99802.78;6030486;23;97421;-83
2020/12/30 08:28:13;;;;;;;;;;;;;;;7.00;53.61;99802.75;6033429;23;96796;-84
2020/12/30 08:30:39;;;;;;;;;;;;;;;7.04;52.88;99799.06;6039910;23;97844;-85
2020/12/30 08:33:07;;;;;;;;;;;;;;;7.18;52.70;99802.06;6037452;23;99912;-84
2020/12/30 08:35:38;;;;;;;;;;;;;;;7.10;53.07;99813.75;6034961;23;96718;-84
2020/12/30 08:38:07;;;;;;;;;;;;;;;7.26;52.33;99807.03;6034803;23;97300;-85
2020/12/30 08:40:34;;;;;;;;;;;;;;;7.58;51.81;99809.31;6033977;23;101454;-85
2020/12/30 08:43:19;;;;;;;;;;;;;;;7.74;51.43;99809.59;6033738;23;98904;-85
2020/12/30 08:45:53;;;;;;;;;;;;;;;7.60;51.54;99814.53;6032447;23;97302;-84
2020/12/30 08:48:20;;;;;;;;;;;;;;;7.87;50.93;99807.34;6031550;23;96786;-84
2020/12/30 08:50:50;;;;;;;;;;;;;;;7.81;51.05;99804.97;6032043;23;98168;-83
2020/12/30 08:53:32;;;;;;;;;;;;;;;7.83;51.18;99811.00;6033703;23;101318;-83
2020/12/30 08:55:58;;;;;;;;;;;;;;;7.60;51.47;99814.53;6038516;23;97428;-83
2020/12/30 08:58:24;;;;;;;;;;;;;;;7.79;50.87;99817.31;6012364;23;96663;-82
2020/12/30 09:00:50;;;;;;;;;;;;;;;7.69;51.56;99811.53;6041896;23;97786;-82
2020/12/30 09:03:18;;;;;;;;;;;;;;;7.91;50.62;99814.19;6042211;23;97169;-83
2020/12/30 09:05:51;;;;;;;;;;;;;;;8.17;49.88;99815.78;6031571;23;96884;-82
2020/12/30 09:08:17;;;;;;;;;;;;;;;7.93;50.62;99817.63;6035709;23;96788;-82
2020/12/30 09:10:44;;;;;;;;;;;;;;;8.28;49.63;99816.19;6040420;23;98507;-84
2020/12/30 09:13:10;;;;;;;;;;;;;;;8.24;49.87;99818.13;6049683;23;99615;-83
2020/12/30 09:15:38;;;;;;;;;;;;;;;8.58;48.68;99822.88;6052525;23;96334;-83
2020/12/30 09:18:04;;;;;;;;;;;;;;;7.96;50.35;99820.97;6053613;23;96843;-84
2020/12/30 09:20:31;;;;;;;;;;;;;;;8.26;49.63;99818.91;6052155;23;97976;-84
2020/12/30 09:23:00;;;;;;;;;;;;;;;8.49;49.05;99827.66;6049670;23;98090;-88
2020/12/30 09:25:26;;;;;;;;;;;;;;;8.64;48.59;99813.88;6050407;23;97417;-85
2020/12/30 09:27:52;;;;;;;;;;;;;;;9.06;47.87;99821.69;6049203;23;96984;-85
2020/12/30 09:30:23;;;;;;;;;;;;;;;8.73;48.78;99813.47;6048386;23;97848;-84
2020/12/30 09:32:49;;;;;;;;;;;;;;;8.69;48.64;99825.06;6046063;23;97779;-84
2020/12/30 09:35:31;;;;;;;;;;;;;;;8.95;47.89;99829.22;6044001;23;97093;-85
2020/12/30 09:38:01;;;;;;;;;;;;;;;9.16;47.75;99818.59;6041778;23;97502;-83
2020/12/30 09:40:35;;;;;;;;;;;;;;;9.39;46.94;99821.97;6037757;23;98036;-84
2020/12/30 09:43:08;;;;;;;;;;;;;;;9.45;46.74;99829.63;6038658;23;100753;-84
2020/12/30 09:45:37;;;;;;;;;;;;;;;9.54;46.48;99829.19;6038715;23;97134;-85
2020/12/30 09:48:11;;;;;;;;;;;;;;;9.34;46.97;99822.19;6036428;23;96600;-85
2020/12/30 09:50:38;;;;;;;;;;;;;;;9.16;47.11;99823.88;6037894;23;98913;-86
2020/12/30 09:53:05;;;;;;;;;;;;;;;9.46;46.71;99818.13;6041118;23;100393;-86
2020/12/30 09:55:31;;;;;;;;;;;;;;;9.60;46.45;99824.47;6040550;23;96768;-87
2020/12/30 09:57:58;;;;;;;;;;;;;;;9.65;46.08;99820.81;6014923;23;96788;-83
2020/12/30 10:00:26;;;;;;;;;;;;;;;9.52;46.63;99815.19;6042633;23;101555;-85
2020/12/30 10:02:55;;;;;;;;;;;;;;;9.03;47.56;99827.97;6040369;23;99283;-86
2020/12/30 10:05:38;;;;;;;;;;;;;;;9.38;47.32;99831.69;6046715;23;96981;-85
2020/12/30 10:08:19;;;;;;;;;;;;;;;9.87;46.10;99827.63;6052862;23;97182;-87
2020/12/30 10:10:48;;;;;;;;;;;;;;;9.74;46.45;99823.84;6050855;23;99137;-84
2020/12/30 10:13:14;;;;;;;;;;;;;;;9.71;46.19;99824.00;6045350;23;99431;-84
2020/12/30 10:18:26;;;;;;;;;;;;;;;9.98;46.05;99827.97;6051744;23;96646;-86
2020/12/30 10:20:53;;;;;;;;;;;;;;;10.30;45.40;99829.13;6055825;23;96834;-86
2020/12/30 10:23:23;;;;;;;;;;;;;;;10.31;45.19;99819.38;6029949;23;98073;-84
2020/12/30 10:25:50;;;;;;;;;;;;;;;10.19;45.59;99819.97;6053655;23;95931;-88
2020/12/30 10:28:16;;;;;;;;;;;;;;;10.29;45.17;99818.63;6050952;23;96669;-90
2020/12/30 10:30:43;;;;;;;;;;;;;;;10.41;45.12;99812.72;6052681;23;99159;-89
2020/12/30 10:33:10;;;;;;;;;;;;;;;10.18;45.54;99818.25;6054547;23;96984;-91
2020/12/30 10:35:54;;;;;;;;;;;;;;;10.44;44.73;99825.78;6053238;23;96685;-92
2020/12/30 10:47:13;;;;;;;;;;;;;;;9.90;46.47;99818.72;6042703;23;96808;-87
2020/12/30 10:55:25;;;;;;;;;;;;;;;9.38;47.50;99823.78;5981978;23;96941;-89
2020/12/30 11:00:56;;;;;;;;;;;;;;;9.57;47.06;99821.16;5956550;23;100485;-90
2020/12/30 11:03:24;;;;;;;;;;;;;;;10.00;46.39;99822.63;6051532;23;96810;-87
2020/12/30 11:05:52;;;;;;;;;;;;;;;10.18;46.31;99820.91;6050608;23;96907;-88
2020/12/30 11:08:24;;;;;;;;;;;;;;;10.23;45.92;99814.50;6055006;23;96645;-90
2020/12/30 11:16:41;;;;;;;;;;;;;;;10.02;46.75;99814.63;5963968;23;96323;-87
2020/12/30 11:19:16;;;;;;;;;;;;;;;9.87;46.60;99817.06;6053475;23;96045;-88
2020/12/30 11:21:41;;;;;;;;;;;;;;;9.80;46.99;99814.78;6053061;23;96047;-84
2020/12/30 11:27:10;;;;;;;;;;;;;;;10.00;46.40;99802.38;6051403;23;98453;-84
2020/12/30 11:29:36;;;;;;;;;;;;;;;10.03;46.55;99803.16;6051360;23;96687;-87
2020/12/30 11:32:05;;;;;;;;;;;;;;;9.83;46.63;99804.09;6050030;23;96494;-87
2020/12/30 11:34:32;;;;;;;;;;;;;;;9.98;46.53;99803.34;6040410;23;97722;-83
2020/12/30 11:36:58;;;;;;;;;;;;;;;9.95;46.71;99807.00;6047795;23;97597;-83
2020/12/30 11:39:24;;;;;;;;;;;;;;;9.79;47.57;99806.00;6044863;23;96665;-83
2020/12/30 11:41:51;;;;;;;;;;;;;;;9.69;47.32;99804.75;6053495;23;97058;-84
2020/12/30 11:44:17;;;;;;;;;;;;;;;9.36;48.61;99803.66;6053050;23;96513;-83
2020/12/30 11:46:43;;;;;;;;;;;;;;;9.77;47.48;99805.25;6051394;23;97846;-86
2020/12/30 11:49:13;;;;;;;;;;;;;;;9.68;48.03;99804.81;6053973;23;96480;-84
2020/12/30 11:51:41;;;;;;;;;;;;;;;9.72;48.01;99811.66;6047846;23;97410;-85
2020/12/30 11:54:07;;;;;;;;;;;;;;;9.75;47.78;99806.25;6043862;23;98247;-85
2020/12/30 11:56:33;;;;;;;;;;;;;;;9.52;48.23;99804.66;6046086;23;96660;-84
2020/12/30 11:59:01;;;;;;;;;;;;;;;9.55;48.61;99804.53;6050482;23;96598;-84
2020/12/30 12:01:31;;;;;;;;;;;;;;;9.78;48.15;99812.22;6046559;23;97319;-85
2020/12/30 12:03:59;;;;;;;;;;;;;;;9.74;48.07;99808.03;6045604;23;99996;-84
2020/12/30 12:06:26;;;;;;;;;;;;;;;9.55;48.69;99809.81;6044783;23;100400;-86
2020/12/30 12:08:52;;;;;;;;;;;;;;;9.77;48.42;99807.88;6046603;23;96589;-85
2020/12/30 12:11:18;;;;;;;;;;;;;;;9.94;48.00;99802.66;6050350;23;96772;-84
2020/12/30 12:13:44;;;;;;;;;;;;;;;10.02;47.59;99812.00;6052435;23;96919;-84
2020/12/30 12:16:10;;;;;;;;;;;;;;;9.65;48.25;99815.53;6051149;23;99365;-85
2020/12/30 12:18:36;;;;;;;;;;;;;;;9.81;48.17;99804.16;6053371;23;96584;-85
2020/12/30 12:21:02;;;;;;;;;;;;;;;9.89;47.85;99812.59;6054460;23;97380;-89
2020/12/30 12:23:29;;;;;;;;;;;;;;;9.81;48.46;99809.44;6056053;23;96757;-87
2020/12/30 12:25:55;;;;;;;;;;;;;;;9.88;48.21;99810.00;6054146;23;98206;-85
2020/12/30 12:28:36;;;;;;;;;;;;;;;10.18;47.47;99818.25;6055430;23;96381;-87
2020/12/30 12:31:02;;;;;;;;;;;;;;;9.98;47.79;99812.13;6055561;23;96607;-87
2020/12/30 12:33:28;;;;;;;;;;;;;;;9.79;48.37;99813.06;6047231;23;101007;-85
2020/12/30 12:35:57;;;;;;;;;;;;;;;9.68;48.85;99824.13;6037235;23;99856;-86
2020/12/30 12:38:23;;;;;;;;;;;;;;;9.71;48.72;99820.50;6043553;23;96729;-88
2020/12/30 12:40:54;;;;;;;;;;;;;;;9.84;48.71;99821.66;6047931;23;96709;-88
2020/12/30 12:43:21;;;;;;;;;;;;;;;9.85;48.35;99820.69;6046932;23;97066;-85
2020/12/30 12:45:47;;;;;;;;;;;;;;;9.74;48.80;99825.63;6019700;23;97746;-88
2020/12/30 12:48:19;;;;;;;;;;;;;;;9.68;48.93;99826.78;6038694;23;97265;-83
2020/12/30 12:50:45;;;;;;;;;;;;;;;10.00;48.07;99823.47;6044966;23;96719;-83
2020/12/30 12:53:11;;;;;;;;;;;;;;;9.99;48.23;99813.84;6046024;23;98046;-84
2020/12/30 12:55:37;;;;;;;;;;;;;;;9.92;48.32;99819.47;6047549;23;98432;-86
2020/12/30 13:03:24;;;;;;;;;;;;;;;10.16;47.81;99826.25;5455900;23;106510;-80
2020/12/30 13:05:50;;;;;;;;;;;;;;;10.30;47.00;99817.69;6054572;23;100729;-82
2020/12/30 13:08:16;;;;;;;;;;;;;;;10.47;46.82;99812.44;6059612;23;97439;-82
2020/12/30 13:10:42;;;;;;;;;;;;;;;10.56;46.56;99819.91;6059491;23;97850;-83
2020/12/30 13:13:08;;;;;;;;;;;;;;;10.83;46.05;99824.72;6062613;23;98933;-82
2020/12/30 13:15:34;;;;;;;;;;;;;;;10.81;46.01;99819.50;6082533;23;101832;-82
2020/12/30 13:17:59;;;;;;;;;;;;;;;10.75;46.08;99823.31;6080744;23;96603;-81
2020/12/30 13:20:26;;;;;;;;;;;;;;;10.80;45.70;99812.50;6072515;23;96690;-82
2020/12/30 13:22:52;;;;;;;;;;;;;;;10.71;45.87;99816.47;6071318;23;99379;-83
2020/12/30 13:25:18;;;;;;;;;;;;;;;10.86;46.13;99813.97;6071624;23;101202;-82
2020/12/30 13:27:44;;;;;;;;;;;;;;;10.95;45.69;99826.75;6070958;23;96818;-82
2020/12/30 13:30:10;;;;;;;;;;;;;;;10.85;45.47;99814.91;6070574;23;96878;-81
2020/12/30 13:32:37;;;;;;;;;;;;;;;11.15;45.24;99821.28;6065837;23;118668;-82
2020/12/30 13:35:03;;;;;;;;;;;;;;;11.45;44.44;99819.63;6075007;23;101731;-82
2020/12/30 13:37:30;;;;;;;;;;;;;;;11.50;44.24;99822.88;6079437;23;96717;-81
2020/12/30 13:39:56;;;;;;;;;;;;;;;11.41;44.79;99827.84;6082004;23;97470;-83
2020/12/30 13:42:22;;;;;;;;;;;;;;;10.96;45.41;99831.09;6080734;23;97094;-82
2020/12/30 13:44:48;;;;;;;;;;;;;;;11.19;45.01;99836.03;6083027;23;99817;-82
2020/12/30 13:47:14;;;;;;;;;;;;;;;11.00;45.62;99830.84;6082240;23;96641;-82
2020/12/30 13:49:40;;;;;;;;;;;;;;;10.88;45.93;99828.84;6076586;23;97132;-85
2020/12/30 13:52:06;;;;;;;;;;;;;;;10.75;46.11;99833.03;6081568;23;98494;-82
2020/12/30 13:54:32;;;;;;;;;;;;;;;10.73;46.43;99825.19;6080574;23;98846;-82
2020/12/30 13:57:04;;;;;;;;;;;;;;;10.68;46.47;99827.22;6083773;23;96400;-82
2020/12/30 13:59:30;;;;;;;;;;;;;;;10.54;46.73;99831.47;6082612;23;96499;-81
2020/12/30 14:01:56;;;;;;;;;;;;;;;10.43;47.07;99836.44;6083360;23;98687;-81